Elkton, Florida
Current Conditions -  °F | °C
As of 1:58 AM on Saturday 25 Oct 2014 (Local Time) from KSGJ Reporting Station
Clear Clear  
Wind Chill: 61°   Ceiling: Unl
Heat Index: 61°   Visibility: 10mi
Dew Point: 53°   Wind: 8mph
Humidity: 75%   Direction: 320°NW
Pressure: 29.99"   Gusts: NA
Location:  29.78°N, 81.43°W
Report Text: KSGJ 250558Z AUTO 32007KT 10SM CLR 16/12 A2999 RMK AO2 SLP156 T01610117 10183 20156 58006
Loading
Personal Weather Stations






























Interactive Weather Map
Tropical Storm Tracking
New forecast layout! Learn more

10-Day Weather Forecast

Advertisements
Track Severe Weather on mobile